F/V J. Louis Vincent — FQBL — position and weather

sailwx.info

Track history (hours):
 
Tides and Currents Weather Stations Pressure Air Temp Water Temp Dewpoint Dewpoint Depression Visibility Wind Speed Wind Dir Waves Ship Positions

F/V J. Louis Vincent

Last reported at 2014-Sep-30 17:07 UTC. Time now 2014-Oct-01 00:09 UTC.
Position N 43°24' E 003°42'.

Length 29 m.

Type: Fishing. MMSI: 227146600.

Date/timePositionNaut miles runAvg speedWind from/ knotsBaromVisibWave heightAir tempDewpointWater temp
2014-Sep-30 17:07N 43°24' E 003°42'0 0.1
2014-Sep-30 16:32N 43°24' E 003°42'0 0.3
2014-Sep-30 15:17N 43°24' E 003°42'10 5.8
2014-Sep-30 13:33N 43°16' E 003°51'6 4.5
2014-Sep-30 12:17N 43°12' E 003°56'8 4.1
2014-Sep-30 10:17N 43°05' E 004°01'4 4.2
2014-Sep-30 09:15N 43°04' E 004°07'4 4.4
2014-Sep-30 08:24N 43°02' E 004°12'3 0.9
2014-Sep-30 05:21N 43°02' E 004°08'29 2.0
2014-Sep-29 15:11N 43°24' E 003°43'5 8.5
2014-Sep-29 14:33N 43°20' E 003°48'4 3.8
2014-Sep-29 13:34N 43°17' E 003°52'4 4.3
2014-Sep-29 12:32N 43°14' E 003°56'5 4.4
2014-Sep-29 11:25N 43°11' E 004°01'2 2.1
2014-Sep-29 10:23N 43°10' E 004°04'9 4.4
2014-Sep-29 08:22N 43°07' E 004°15'  
2014-Sep-26 15:31N 43°24' E 003°42'0 0.4
2014-Sep-26 14:28N 43°24' E 003°42'2 2.1
2014-Sep-26 13:27N 43°22' E 003°44'11 8.4
2014-Sep-26 12:12N 43°16' E 003°55'4 4.6
2014-Sep-26 11:23N 43°14' E 003°60'4 4.7
2014-Sep-26 10:33N 43°12' E 004°04'2 2.4
2014-Sep-26 09:33N 43°12' E 004°08'5 4.6
2014-Sep-26 08:32N 43°09' E 004°13'5 4.5
2014-Sep-26 07:19N 43°05' E 004°18'4 2.0
2014-Sep-26 05:20N 43°06' E 004°13'29 2.1
2014-Sep-25 15:27N 43°24' E 003°42'0 0.4
2014-Sep-25 14:28N 43°24' E 003°42'17 8.1
2014-Sep-25 12:24N 43°13' E 003°59'3 3.8
2014-Sep-25 11:33N 43°11' E 004°03'2 1.8
2014-Sep-25 10:22N 43°11' E 004°06'5 4.4
2014-Sep-25 09:21N 43°11' E 004°12'25 1.5
2014-Sep-24 16:33N 43°24' E 003°42'0 0.2
2014-Sep-24 15:33N 43°24' E 003°42'0 0.1
2014-Sep-24 14:33N 43°24' E 003°42'5 4.1
2014-Sep-24 13:27N 43°21' E 003°47'5 4.7
2014-Sep-24 12:23N 43°19' E 003°53'4 4.4
2014-Sep-24 11:33N 43°18' E 003°58'4 4.5
2014-Sep-24 10:33N 43°16' E 004°04'3 2.9
2014-Sep-24 09:32N 43°16' E 004°08'4 4.4
2014-Sep-24 08:32N 43°14' E 004°13'7 2.7
2014-Sep-24 06:10N 43°10' E 004°20'3 4.4
2014-Sep-24 05:33N 43°12' E 004°17'5 4.6
2014-Sep-24 04:28N 43°13' E 004°11'5 4.4
2014-Sep-24 03:21N 43°15' E 004°05'4 4.6
2014-Sep-24 02:27N 43°17' E 003°60'15 1.4
2014-Sep-23 16:09N 43°24' E 003°42'1 0.5
2014-Sep-23 13:32N 43°23' E 003°43'5 5.1
2014-Sep-23 12:33N 43°20' E 003°49'9 4.1
2014-Sep-23 10:17N 43°20' E 004°01'7 3.9
2014-Sep-23 08:25N 43°18' E 004°11'5 4.4
2014-Sep-23 07:11N 43°15' E 004°18'27 1.7
2014-Sep-22 15:31N 43°24' E 003°43'3 1.3
2014-Sep-22 13:20N 43°24' E 003°46'8 7.2
2014-Sep-22 12:13N 43°23' E 003°57'7 3.4
2014-Sep-22 10:16N 43°21' E 004°06'4 3.9
2014-Sep-22 09:19N 43°20' E 004°11'8 4.4
2014-Sep-22 07:26N 43°16' E 004°21'3 2.8
2014-Sep-22 06:33N 43°15' E 004°24'4 3.8
2014-Sep-22 05:31N 43°16' E 004°19'4 4.5
2014-Sep-22 04:33N 43°18' E 004°14'5 4.5
2014-Sep-22 03:33N 43°20' E 004°08'5 4.4
2014-Sep-22 02:31N 43°22' E 004°02'  
Track history (hours):
 
Tides and Currents Weather Stations Pressure Air Temp Water Temp Dewpoint Dewpoint Depression Visibility Wind Speed Wind Dir Waves Ship Positions

F/V J. Louis Vincent

Last reported at 2014-Sep-30 17:07 UTC. Time now 2014-Oct-01 00:09 UTC.
Position N 43°24' E 003°42'.

Length 29 m.

Type: Fishing. MMSI: 227146600.

Date/timePositionNaut miles runAvg speedWind from/ knotsBaromVisibWave heightAir tempDewpointWater temp
2014-Sep-30 17:07N 43°24' E 003°42'0 0.1
2014-Sep-30 16:32N 43°24' E 003°42'0 0.3
2014-Sep-30 15:17N 43°24' E 003°42'10 5.8
2014-Sep-30 13:33N 43°16' E 003°51'6 4.5
2014-Sep-30 12:17N 43°12' E 003°56'8 4.1
2014-Sep-30 10:17N 43°05' E 004°01'4 4.2
2014-Sep-30 09:15N 43°04' E 004°07'4 4.4
2014-Sep-30 08:24N 43°02' E 004°12'3 0.9
2014-Sep-30 05:21N 43°02' E 004°08'29 2.0
2014-Sep-29 15:11N 43°24' E 003°43'5 8.5
2014-Sep-29 14:33N 43°20' E 003°48'4 3.8
2014-Sep-29 13:34N 43°17' E 003°52'4 4.3
2014-Sep-29 12:32N 43°14' E 003°56'5 4.4
2014-Sep-29 11:25N 43°11' E 004°01'2 2.1
2014-Sep-29 10:23N 43°10' E 004°04'9 4.4
2014-Sep-29 08:22N 43°07' E 004°15'  
2014-Sep-26 15:31N 43°24' E 003°42'0 0.4
2014-Sep-26 14:28N 43°24' E 003°42'2 2.1
2014-Sep-26 13:27N 43°22' E 003°44'11 8.4
2014-Sep-26 12:12N 43°16' E 003°55'4 4.6
2014-Sep-26 11:23N 43°14' E 003°60'4 4.7
2014-Sep-26 10:33N 43°12' E 004°04'2 2.4
2014-Sep-26 09:33N 43°12' E 004°08'5 4.6
2014-Sep-26 08:32N 43°09' E 004°13'5 4.5
2014-Sep-26 07:19N 43°05' E 004°18'4 2.0
2014-Sep-26 05:20N 43°06' E 004°13'29 2.1
2014-Sep-25 15:27N 43°24' E 003°42'0 0.4
2014-Sep-25 14:28N 43°24' E 003°42'17 8.1
2014-Sep-25 12:24N 43°13' E 003°59'3 3.8
2014-Sep-25 11:33N 43°11' E 004°03'2 1.8
2014-Sep-25 10:22N 43°11' E 004°06'5 4.4
2014-Sep-25 09:21N 43°11' E 004°12'25 1.5
2014-Sep-24 16:33N 43°24' E 003°42'0 0.2
2014-Sep-24 15:33N 43°24' E 003°42'0 0.1
2014-Sep-24 14:33N 43°24' E 003°42'5 4.1
2014-Sep-24 13:27N 43°21' E 003°47'5 4.7
2014-Sep-24 12:23N 43°19' E 003°53'4 4.4
2014-Sep-24 11:33N 43°18' E 003°58'4 4.5
2014-Sep-24 10:33N 43°16' E 004°04'3 2.9
2014-Sep-24 09:32N 43°16' E 004°08'4 4.4
2014-Sep-24 08:32N 43°14' E 004°13'7 2.7
2014-Sep-24 06:10N 43°10' E 004°20'3 4.4
2014-Sep-24 05:33N 43°12' E 004°17'5 4.6
2014-Sep-24 04:28N 43°13' E 004°11'5 4.4
2014-Sep-24 03:21N 43°15' E 004°05'4 4.6
2014-Sep-24 02:27N 43°17' E 003°60'15 1.4
2014-Sep-23 16:09N 43°24' E 003°42'1 0.5
2014-Sep-23 13:32N 43°23' E 003°43'5 5.1
2014-Sep-23 12:33N 43°20' E 003°49'9 4.1
2014-Sep-23 10:17N 43°20' E 004°01'7 3.9
2014-Sep-23 08:25N 43°18' E 004°11'5 4.4
2014-Sep-23 07:11N 43°15' E 004°18'27 1.7
2014-Sep-22 15:31N 43°24' E 003°43'3 1.3
2014-Sep-22 13:20N 43°24' E 003°46'8 7.2
2014-Sep-22 12:13N 43°23' E 003°57'7 3.4
2014-Sep-22 10:16N 43°21' E 004°06'4 3.9
2014-Sep-22 09:19N 43°20' E 004°11'8 4.4
2014-Sep-22 07:26N 43°16' E 004°21'3 2.8
2014-Sep-22 06:33N 43°15' E 004°24'4 3.8
2014-Sep-22 05:31N 43°16' E 004°19'4 4.5
2014-Sep-22 04:33N 43°18' E 004°14'5 4.5
2014-Sep-22 03:33N 43°20' E 004°08'5 4.4
2014-Sep-22 02:31N 43°22' E 004°02'  

Dump ship's entire track history